Time;durP1;ratioP1;P1;durP2;ratioP2;P2;SDS_P1;SDS_P2;PMS_P1;PMS_P2;Temp;Humidity;BMP_temperature;BMP_pressure;BME280_temperature;BME280_humidity;BME280_pressure;Samples;Min_cycle;Max_cycle;Signal;HPM_P1;HPM_P2
2023/05/04 00:00:39;;;;;;;14.05;7.82;;;;;;;-144.85;100.00;61331.59;5100744;28;32544;-83
2023/05/04 00:03:06;;;;;;;11.90;7.38;;;;;;;-144.85;100.00;61331.59;5099199;28;36071;-86
2023/05/04 00:05:33;;;;;;;11.85;7.78;;;;;;;-144.85;100.00;61331.59;5093603;28;32925;-83
2023/05/04 00:08:00;;;;;;;12.82;7.22;;;;;;;-144.85;100.00;61331.59;5090199;28;32087;-82
2023/05/04 00:10:27;;;;;;;12.60;7.20;;;;;;;-144.85;100.00;61331.59;5114115;27;30315;-86
2023/05/04 00:12:55;;;;;;;11.63;7.35;;;;;;;-144.85;100.00;61331.59;5105578;28;34846;-83
2023/05/04 00:15:22;;;;;;;11.93;7.55;;;;;;;-144.85;100.00;61331.59;5102274;28;32510;-82
2023/05/04 00:17:49;;;;;;;12.15;7.35;;;;;;;-144.85;100.00;61331.59;5096095;28;31932;-83
2023/05/04 00:20:17;;;;;;;9.70;7.18;;;;;;;-144.85;100.00;61331.59;5100485;28;33241;-82
2023/05/04 00:22:44;;;;;;;14.82;7.95;;;;;;;-144.85;100.00;61331.59;5118299;27;32549;-85
2023/05/04 00:25:11;;;;;;;13.85;6.85;;;;;;;-144.85;100.00;61331.59;5111433;28;32900;-85
2023/05/04 00:27:38;;;;;;;11.05;6.90;;;;;;;-144.85;100.00;61331.59;5101138;28;32509;-82
2023/05/04 00:30:06;;;;;;;12.57;7.00;;;;;;;-144.85;100.00;61331.59;5101749;27;30320;-84
2023/05/04 00:32:33;;;;;;;11.85;7.20;;;;;;;-144.85;100.00;61331.59;5109181;27;33819;-84
2023/05/04 00:35:00;;;;;;;11.45;7.18;;;;;;;-144.85;100.00;61331.59;5101769;28;32568;-86
2023/05/04 00:37:27;;;;;;;10.60;6.85;;;;;;;-144.85;100.00;61331.59;5104022;28;33128;-85
2023/05/04 00:39:55;;;;;;;13.63;6.90;;;;;;;-144.85;100.00;61331.59;5105644;28;31329;-84
2023/05/04 00:42:22;;;;;;;10.50;6.40;;;;;;;-144.85;100.00;61331.59;5116424;27;32697;-84
2023/05/04 00:44:50;;;;;;;20.33;6.70;;;;;;;-144.85;100.00;61331.59;5109217;28;32790;-86
2023/05/04 00:47:18;;;;;;;13.10;6.50;;;;;;;-144.85;100.00;61331.59;5115748;27;32202;-85
2023/05/04 00:49:46;;;;;;;11.70;6.22;;;;;;;-144.85;100.00;61331.59;5111354;27;33013;-84
2023/05/04 00:52:14;;;;;;;11.02;6.30;;;;;;;-144.85;100.00;61331.59;5119800;27;32579;-83
2023/05/04 00:54:45;;;;;;;9.57;6.10;;;;;;;-144.85;100.00;61331.59;5109985;27;31216;-85
2023/05/04 00:57:14;;;;;;;9.20;6.65;;;;;;;-144.85;100.00;61331.59;5138953;27;31933;-83
2023/05/04 00:59:41;;;;;;;10.15;6.47;;;;;;;-144.85;100.00;61331.59;5123197;27;31758;-84
2023/05/04 01:02:09;;;;;;;11.95;6.70;;;;;;;-144.85;100.00;61331.59;5112390;27;32611;-84
2023/05/04 01:04:36;;;;;;;13.73;6.75;;;;;;;-144.85;100.00;61331.59;5121446;27;33765;-84
2023/05/04 01:07:32;;;;;;;11.63;7.20;;;;;;;-144.85;100.00;61331.59;5113126;27;33769;-83
2023/05/04 01:10:21;;;;;;;13.30;6.72;;;;;;;-144.85;100.00;61331.59;5103136;28;33244;-85
2023/05/04 01:12:55;;;;;;;8.93;6.40;;;;;;;-144.85;100.00;61331.59;5106911;27;31278;-83
2023/05/04 01:15:22;;;;;;;10.00;6.05;;;;;;;-144.85;100.00;61331.59;5114252;27;32389;-84
2023/05/04 01:17:49;;;;;;;10.57;6.20;;;;;;;-144.85;100.00;61331.59;5111729;27;32962;-81
2023/05/04 01:20:17;;;;;;;12.00;6.63;;;;;;;-144.85;100.00;61331.59;5106756;28;33022;-85
2023/05/04 01:22:44;;;;;;;10.80;6.30;;;;;;;-144.85;100.00;61331.59;5106410;28;34001;-84
2023/05/04 01:25:12;;;;;;;11.15;6.78;;;;;;;-144.85;100.00;61331.59;5117661;27;32348;-84
2023/05/04 01:27:43;;;;;;;13.77;6.35;;;;;;;-144.85;100.00;61331.59;5125576;27;31882;-85
2023/05/04 01:30:18;;;;;;;12.05;6.57;;;;;;;-144.85;100.00;61331.59;5113481;27;33022;-85
2023/05/04 01:32:46;;;;;;;12.95;6.40;;;;;;;-144.85;100.00;61331.59;5103508;28;33703;-83
2023/05/04 01:35:15;;;;;;;8.75;6.60;;;;;;;-144.85;100.00;61331.59;5116463;27;34237;-84
2023/05/04 01:37:42;;;;;;;11.35;6.85;;;;;;;-144.85;100.00;61331.59;5124012;27;33240;-84
2023/05/04 01:40:10;;;;;;;10.48;6.78;;;;;;;-144.85;100.00;61331.59;5116267;27;33293;-81
2023/05/04 01:42:37;;;;;;;11.38;6.80;;;;;;;-144.85;100.00;61331.59;5110981;27;32231;-84
2023/05/04 01:45:05;;;;;;;10.55;6.70;;;;;;;-144.85;100.00;61331.59;5107385;27;33757;-81
2023/05/04 01:47:32;;;;;;;14.82;6.97;;;;;;;-144.85;100.00;61331.59;5106523;28;33609;-84
2023/05/04 01:49:59;;;;;;;10.13;6.57;;;;;;;-144.85;100.00;61331.59;5105087;28;33333;-83
2023/05/04 01:52:27;;;;;;;12.15;7.07;;;;;;;-144.85;100.00;61331.59;5116836;27;32275;-82
2023/05/04 01:54:54;;;;;;;11.00;6.70;;;;;;;-144.85;100.00;61331.59;5105617;28;32058;-82
2023/05/04 01:57:22;;;;;;;11.07;6.95;;;;;;;-144.85;100.00;61331.59;5112125;27;33166;-82
2023/05/04 01:59:49;;;;;;;11.13;6.78;;;;;;;-144.85;100.00;61331.59;5118127;27;31639;-83
2023/05/04 02:02:16;;;;;;;12.95;7.10;;;;;;;-144.85;100.00;61331.59;5105465;27;32568;-83
2023/05/04 02:04:43;;;;;;;11.75;6.65;;;;;;;-144.85;100.00;61331.59;5119202;27;31965;-82
2023/05/04 02:07:11;;;;;;;12.02;7.00;;;;;;;-144.85;100.00;61331.59;5112318;27;32103;-82
2023/05/04 02:09:39;;;;;;;12.07;7.15;;;;;;;-144.85;100.00;61331.59;5112458;27;32731;-82
2023/05/04 02:12:06;;;;;;;14.40;7.22;;;;;;;-144.85;100.00;61331.59;5111801;27;34121;-82
2023/05/04 02:14:33;;;;;;;9.68;6.97;;;;;;;-144.85;100.00;61331.59;5125594;27;32235;-82
2023/05/04 02:17:00;;;;;;;14.02;7.63;;;;;;;-144.85;100.00;61331.59;5111822;27;33402;-82
2023/05/04 02:19:27;;;;;;;10.85;7.32;;;;;;;-144.85;100.00;61331.59;5116653;27;31572;-83
2023/05/04 02:21:55;;;;;;;12.80;7.55;;;;;;;-144.85;100.00;61331.59;5119890;27;33829;-82
2023/05/04 02:24:22;;;;;;;12.07;7.80;;;;;;;-144.85;100.00;61331.59;5112133;27;32375;-81
2023/05/04 02:26:49;;;;;;;11.65;7.60;;;;;;;-144.85;100.00;61331.59;5112201;27;31351;-82
2023/05/04 02:29:16;;;;;;;13.77;7.40;;;;;;;-144.85;100.00;61331.59;5105974;28;31510;-81
2023/05/04 02:31:43;;;;;;;12.85;7.93;;;;;;;-144.85;100.00;61331.59;5105981;28;34011;-82
2023/05/04 02:34:13;;;;;;;11.02;7.72;;;;;;;-144.85;100.00;61331.59;5106502;28;33572;-81
2023/05/04 02:36:46;;;;;;;12.23;7.72;;;;;;;-144.85;100.00;61331.59;5115673;27;34236;-81
2023/05/04 02:39:13;;;;;;;13.18;7.38;;;;;;;-144.85;100.00;61331.59;5108162;27;31684;-82
2023/05/04 02:41:40;;;;;;;12.35;7.32;;;;;;;-144.85;100.00;61331.59;5106264;28;34246;-81
2023/05/04 02:44:08;;;;;;;10.88;7.53;;;;;;;-144.85;100.00;61331.59;5106233;28;33777;-82
2023/05/04 02:46:35;;;;;;;11.55;7.60;;;;;;;-144.85;100.00;61331.59;5105754;28;33537;-81
2023/05/04 02:49:02;;;;;;;11.77;7.22;;;;;;;-144.85;100.00;61331.59;5120547;27;32566;-81
2023/05/04 02:51:29;;;;;;;13.65;7.97;;;;;;;-144.85;100.00;61331.59;5105693;28;33862;-82
2023/05/04 02:53:56;;;;;;;10.23;7.38;;;;;;;-144.85;100.00;61331.59;5106496;28;33769;-81
2023/05/04 02:56:24;;;;;;;12.20;7.32;;;;;;;-144.85;100.00;61331.59;5089132;28;32020;-81
2023/05/04 02:58:51;;;;;;;10.98;7.53;;;;;;;-144.85;100.00;61331.59;5106921;28;33281;-82
2023/05/04 03:01:18;;;;;;;12.32;7.97;;;;;;;-144.85;100.00;61331.59;5119628;27;33248;-83
2023/05/04 03:03:46;;;;;;;11.95;7.45;;;;;;;-144.85;100.00;61331.59;5115821;27;33789;-81
2023/05/04 03:06:13;;;;;;;14.77;8.00;;;;;;;-144.85;100.00;61331.59;5124301;27;33451;-81
2023/05/04 03:08:41;;;;;;;13.52;7.40;;;;;;;-144.85;100.00;61331.59;5105346;28;31456;-82
2023/05/04 03:11:08;;;;;;;15.00;7.63;;;;;;;-144.85;100.00;61331.59;5106034;28;32661;-81
2023/05/04 03:13:36;;;;;;;10.65;7.50;;;;;;;-144.85;100.00;61331.59;5112685;27;31817;-81
2023/05/04 03:16:04;;;;;;;11.75;7.45;;;;;;;-144.85;100.00;61331.59;5114105;27;33531;-81
2023/05/04 03:18:34;;;;;;;12.63;7.60;;;;;;;-144.85;100.00;61331.59;5108232;27;32846;-81
2023/05/04 03:21:04;;;;;;;11.75;7.75;;;;;;;-144.85;100.00;61331.59;5125883;27;32813;-81
2023/05/04 03:23:33;;;;;;;10.93;7.57;;;;;;;-144.85;100.00;61331.59;5126114;27;34000;-80
2023/05/04 03:26:00;;;;;;;11.75;7.45;;;;;;;-144.85;100.00;61331.59;5106171;28;33420;-82
2023/05/04 03:28:28;;;;;;;11.05;6.93;;;;;;;-144.85;100.00;61331.59;5117997;27;31882;-81
2023/05/04 03:30:56;;;;;;;9.30;7.10;;;;;;;-144.85;100.00;61331.59;5120629;27;32818;-82
2023/05/04 03:33:27;;;;;;;13.55;7.20;;;;;;;-144.85;100.00;61331.59;5114691;27;32057;-80
2023/05/04 03:35:56;;;;;;;10.20;7.03;;;;;;;-144.85;100.00;61331.59;5121515;27;34436;-81
2023/05/04 03:38:25;;;;;;;10.75;7.15;;;;;;;-144.85;100.00;61331.59;5116576;27;33129;-81
2023/05/04 03:40:55;;;;;;;14.30;7.05;;;;;;;-144.85;100.00;61331.59;5109371;27;34570;-81
2023/05/04 03:43:23;;;;;;;13.35;6.78;;;;;;;-144.85;100.00;61331.59;5126298;27;32695;-81
2023/05/04 03:45:57;;;;;;;10.93;6.68;;;;;;;-144.85;100.00;61331.59;5107370;27;31683;-81
2023/05/04 03:48:25;;;;;;;9.30;5.80;;;;;;;-144.85;100.00;61331.59;5116254;27;33277;-80
2023/05/04 03:50:53;;;;;;;10.93;6.07;;;;;;;-144.85;100.00;61331.59;5124981;27;32156;-80
2023/05/04 03:53:21;;;;;;;10.40;5.90;;;;;;;-144.85;100.00;61331.59;5093639;28;32397;-82
2023/05/04 03:55:50;;;;;;;11.77;6.38;;;;;;;-144.85;100.00;61331.59;5120372;27;32418;-80
2023/05/04 03:58:17;;;;;;;10.07;7.13;;;;;;;-144.85;100.00;61331.59;5125974;27;33071;-80
2023/05/04 04:00:45;;;;;;;11.90;6.22;;;;;;;-144.85;100.00;61331.59;5112888;27;32651;-79
2023/05/04 04:03:14;;;;;;;14.55;7.30;;;;;;;-144.85;100.00;61331.59;5121357;27;32345;-81
2023/05/04 04:05:43;;;;;;;11.45;6.30;;;;;;;-144.85;100.00;61331.59;5114236;22;33389;-63
2023/05/04 04:08:10;;;;;;;12.13;5.53;;;;;;;-144.85;100.00;61331.59;5093468;28;31381;-63
2023/05/04 04:10:37;;;;;;;11.43;6.32;;;;;;;-144.85;100.00;61331.59;5085080;28;32776;-63
2023/05/04 04:13:08;;;;;;;10.40;6.25;;;;;;;-144.85;100.00;61331.59;5095196;28;31133;-63
2023/05/04 04:15:36;;;;;;;12.80;6.05;;;;;;;-144.85;100.00;61331.59;5085788;28;31766;-63
2023/05/04 04:18:03;;;;;;;12.82;6.07;;;;;;;-144.85;100.00;61331.59;5096306;28;31265;-63
2023/05/04 04:20:31;;;;;;;9.23;5.50;;;;;;;-144.85;100.00;61331.59;5095065;28;32504;-63
2023/05/04 04:22:59;;;;;;;11.80;6.53;;;;;;;-144.85;100.00;61331.59;5098132;28;30430;-63
2023/05/04 04:25:26;;;;;;;13.00;6.32;;;;;;;-144.85;100.00;61331.59;5095619;28;32315;-63
2023/05/04 04:27:54;;;;;;;12.07;6.15;;;;;;;-144.85;100.00;61331.59;5085574;28;31549;-63
2023/05/04 04:30:21;;;;;;;8.65;5.63;;;;;;;-144.85;100.00;61331.59;5100594;28;33497;-63
2023/05/04 04:32:49;;;;;;;8.80;6.25;;;;;;;-144.85;100.00;61331.59;5110774;28;33652;-62
2023/05/04 04:35:16;;;;;;;13.43;5.93;;;;;;;-144.85;100.00;61331.59;5098772;28;30457;-63
2023/05/04 04:37:43;;;;;;;11.27;6.13;;;;;;;-144.85;100.00;61331.59;5101711;28;31707;-63
2023/05/04 04:40:11;;;;;;;11.25;6.15;;;;;;;-144.85;100.00;61331.59;5107669;28;32460;-63
2023/05/04 04:42:39;;;;;;;14.80;5.78;;;;;;;-144.85;100.00;61331.59;5078451;28;32025;-65
2023/05/04 04:45:07;;;;;;;9.65;5.90;;;;;;;-144.85;100.00;61331.59;5086013;28;32005;-65
2023/05/04 04:47:34;;;;;;;11.27;6.60;;;;;;;-144.85;100.00;61331.59;5084911;28;32444;-64
2023/05/04 04:50:03;;;;;;;13.05;5.80;;;;;;;-144.85;100.00;61331.59;5108312;28;32443;-65
2023/05/04 04:52:32;;;;;;;10.75;6.13;;;;;;;-144.85;100.00;61331.59;5095606;28;31984;-63
2023/05/04 04:54:59;;;;;;;9.93;5.68;;;;;;;-144.85;100.00;61331.59;5093944;28;30843;-63
2023/05/04 04:57:27;;;;;;;12.40;6.05;;;;;;;-144.85;100.00;61331.59;5089721;28;31441;-63
2023/05/04 04:59:57;;;;;;;8.90;5.90;;;;;;;-144.85;100.00;61331.59;5095226;28;32358;-63
2023/05/04 05:02:26;;;;;;;8.60;6.30;;;;;;;-144.85;100.00;61331.59;5096567;28;32237;-63
2023/05/04 05:04:54;;;;;;;10.60;5.65;;;;;;;-144.85;100.00;61331.59;5105562;28;32885;-63
2023/05/04 05:07:21;;;;;;;9.95;5.90;;;;;;;-144.85;100.00;61331.59;5085962;28;32393;-63
2023/05/04 05:09:49;;;;;;;11.55;5.65;;;;;;;-144.85;100.00;61331.59;5097923;28;33461;-63
2023/05/04 05:12:17;;;;;;;8.85;5.95;;;;;;;-144.85;100.00;61331.59;5106290;28;32048;-63
2023/05/04 05:14:46;;;;;;;10.98;6.18;;;;;;;-144.85;100.00;61331.59;5096075;28;32360;-63
2023/05/04 05:17:13;;;;;;;9.60;5.55;;;;;;;-144.85;100.00;61331.59;5096255;28;31469;-65
2023/05/04 05:19:40;;;;;;;8.60;5.93;;;;;;;-144.85;100.00;61331.59;5092037;28;33143;-65
2023/05/04 05:22:08;;;;;;;11.82;5.70;;;;;;;-144.85;100.00;61331.59;5095247;28;32465;-65
2023/05/04 05:24:35;;;;;;;7.93;5.72;;;;;;;-144.85;100.00;61331.59;5090601;28;31787;-65
2023/05/04 05:27:04;;;;;;;10.27;5.82;;;;;;;-144.85;100.00;61331.59;5101294;28;30433;-63
2023/05/04 05:29:31;;;;;;;10.48;6.28;;;;;;;-144.85;100.00;61331.59;5102342;28;32765;-63
2023/05/04 05:31:58;;;;;;;10.00;5.85;;;;;;;-144.85;100.00;61331.59;5097646;28;32118;-63
2023/05/04 05:34:26;;;;;;;11.63;5.95;;;;;;;-144.85;100.00;61331.59;5108536;28;32799;-64
2023/05/04 05:36:53;;;;;;;10.95;5.75;;;;;;;-144.85;100.00;61331.59;5119914;28;31883;-65
2023/05/04 05:39:20;;;;;;;14.15;6.05;;;;;;;-144.85;100.00;61331.59;5096893;28;33298;-65
2023/05/04 05:41:47;;;;;;;11.00;5.85;;;;;;;-144.85;100.00;61331.59;5099699;28;33274;-65
2023/05/04 05:44:14;;;;;;;10.80;5.90;;;;;;;-144.85;100.00;61331.59;5104715;28;32808;-65
2023/05/04 05:46:42;;;;;;;11.85;6.13;;;;;;;-144.85;100.00;61331.59;5108053;28;31500;-64
2023/05/04 05:49:10;;;;;;;9.13;5.60;;;;;;;-144.85;100.00;61331.59;5103947;28;32451;-65
2023/05/04 05:51:37;;;;;;;9.43;5.68;;;;;;;-144.85;100.00;61331.59;5098497;28;32215;-65
2023/05/04 05:54:04;;;;;;;10.35;5.43;;;;;;;-144.85;100.00;61331.59;5100034;28;31623;-65
2023/05/04 05:56:32;;;;;;;14.77;5.57;;;;;;;-144.85;100.00;61331.59;5093135;28;32560;-63
2023/05/04 05:58:59;;;;;;;9.35;5.10;;;;;;;-144.85;100.00;61331.59;5093750;28;31971;-63
2023/05/04 06:01:26;;;;;;;12.55;5.97;;;;;;;-144.85;100.00;61331.59;5100145;28;32267;-63
2023/05/04 06:03:53;;;;;;;10.38;5.47;;;;;;;-144.85;100.00;61331.59;5112029;28;31647;-63
2023/05/04 06:06:21;;;;;;;14.30;6.07;;;;;;;-144.85;100.00;61331.59;5100900;28;32635;-64
2023/05/04 06:08:48;;;;;;;12.90;6.00;;;;;;;-144.85;100.00;61331.59;5086125;28;33417;-64
2023/05/04 06:11:16;;;;;;;7.72;4.95;;;;;;;-144.85;100.00;61331.59;5097984;28;32966;-65
2023/05/04 06:13:43;;;;;;;8.18;5.15;;;;;;;-144.85;100.00;61331.59;5117279;28;30610;-65
2023/05/04 06:16:10;;;;;;;8.70;6.10;;;;;;;-144.85;100.00;61331.59;5084826;28;31158;-65
2023/05/04 06:18:37;;;;;;;7.38;5.28;;;;;;;-144.85;100.00;61331.59;5111582;28;32532;-65
2023/05/04 06:21:04;;;;;;;9.35;5.63;;;;;;;-144.85;100.00;61331.59;5077695;28;32316;-65
2023/05/04 06:23:32;;;;;;;12.13;5.50;;;;;;;-144.85;100.00;61331.59;5079240;28;30561;-65
2023/05/04 06:25:59;;;;;;;8.75;5.53;;;;;;;-144.85;100.00;61331.59;5084691;28;32414;-65
2023/05/04 06:28:26;;;;;;;11.25;5.82;;;;;;;-144.85;100.00;61331.59;5098454;28;32498;-65
2023/05/04 06:30:53;;;;;;;8.68;5.53;;;;;;;-144.85;100.00;61331.59;5111933;28;33356;-65
2023/05/04 06:33:21;;;;;;;10.38;5.93;;;;;;;-144.85;100.00;61331.59;5111998;28;32259;-65
2023/05/04 06:35:48;;;;;;;9.25;5.18;;;;;;;-144.85;100.00;61331.59;5085903;28;32718;-65
2023/05/04 06:38:15;;;;;;;7.70;5.28;;;;;;;-144.85;100.00;61331.59;5100002;28;31389;-65
2023/05/04 06:40:42;;;;;;;9.27;5.82;;;;;;;-144.85;100.00;61331.59;5097397;28;32253;-65
2023/05/04 06:43:09;;;;;;;13.77;5.82;;;;;;;-144.85;100.00;61331.59;5107757;28;32709;-65
2023/05/04 06:45:38;;;;;;;12.48;5.20;;;;;;;-144.85;100.00;61331.59;5104247;28;32578;-65
2023/05/04 06:48:06;;;;;;;8.30;5.63;;;;;;;-144.85;100.00;61331.59;5084034;28;32291;-65
2023/05/04 06:50:34;;;;;;;9.85;5.40;;;;;;;-144.85;100.00;61331.59;5111211;28;32152;-64
2023/05/04 06:53:09;;;;;;;10.40;5.03;;;;;;;-144.85;100.00;61331.59;5090466;28;31963;-65
2023/05/04 06:55:38;;;;;;;10.75;4.65;;;;;;;-144.85;100.00;61331.59;5105867;28;31993;-65
2023/05/04 06:58:06;;;;;;;9.23;4.72;;;;;;;-144.85;100.00;61331.59;5088044;28;32449;-65
2023/05/04 07:00:33;;;;;;;12.27;5.22;;;;;;;-144.85;100.00;61331.59;5095289;28;31992;-65
2023/05/04 07:03:04;;;;;;;8.93;5.25;;;;;;;-144.85;100.00;61331.59;5109671;28;31930;-65
2023/05/04 07:05:35;;;;;;;7.63;4.88;;;;;;;-144.85;100.00;61331.59;5098325;28;32502;-65
2023/05/04 07:08:02;;;;;;;10.43;4.60;;;;;;;-144.85;100.00;61331.59;5111936;28;32356;-65
2023/05/04 07:10:30;;;;;;;7.05;4.75;;;;;;;-144.85;100.00;61331.59;5091775;28;33119;-65
2023/05/04 07:12:57;;;;;;;7.80;5.03;;;;;;;-144.85;100.00;61331.59;5093085;28;31505;-65
2023/05/04 07:15:25;;;;;;;11.18;5.03;;;;;;;-144.85;100.00;61331.59;5094832;28;32016;-65
2023/05/04 07:17:52;;;;;;;7.57;4.57;;;;;;;-144.85;100.00;61331.59;5086058;28;32332;-65
2023/05/04 07:20:20;;;;;;;6.30;4.55;;;;;;;-144.85;100.00;61331.59;5085237;28;33080;-65
2023/05/04 07:22:57;;;;;;;7.05;4.93;;;;;;;-144.85;100.00;61331.59;5083932;28;32943;-65
2023/05/04 07:25:26;;;;;;;12.40;5.20;;;;;;;-144.85;100.00;61331.59;5088284;28;31411;-65
2023/05/04 07:27:53;;;;;;;10.35;4.97;;;;;;;-144.85;100.00;61331.59;5091755;28;32471;-65
2023/05/04 07:30:20;;;;;;;7.85;4.85;;;;;;;-144.85;100.00;61331.59;5103904;28;32135;-65
2023/05/04 07:32:48;;;;;;;13.20;5.07;;;;;;;-144.85;100.00;61331.59;5083197;28;32590;-65
2023/05/04 07:35:15;;;;;;;9.68;4.55;;;;;;;-144.85;100.00;61331.59;5109038;28;32326;-65
2023/05/04 07:37:42;;;;;;;11.55;4.70;;;;;;;-144.85;100.00;61331.59;5088359;28;32503;-65
2023/05/04 07:40:10;;;;;;;9.10;4.90;;;;;;;-144.85;100.00;61331.59;5108055;28;33181;-65
2023/05/04 07:42:39;;;;;;;6.65;4.45;;;;;;;-144.85;100.00;61331.59;5118441;28;31966;-65
2023/05/04 07:45:08;;;;;;;6.20;4.35;;;;;;;-144.85;100.00;61331.59;5110486;28;31679;-65
2023/05/04 07:47:36;;;;;;;7.60;4.85;;;;;;;-144.85;100.00;61331.59;5113901;27;31405;-65
2023/05/04 07:50:03;;;;;;;10.13;4.78;;;;;;;-144.85;100.00;61331.59;5093039;28;33308;-65
2023/05/04 07:52:32;;;;;;;7.07;4.50;;;;;;;-144.85;100.00;61331.59;5104730;28;30546;-63
2023/05/04 07:54:59;;;;;;;7.30;4.30;;;;;;;-144.85;100.00;61331.59;5111570;28;31468;-63
2023/05/04 07:57:26;;;;;;;6.72;4.55;;;;;;;-144.85;100.00;61331.59;5097075;28;32494;-64
2023/05/04 07:59:54;;;;;;;7.57;4.15;;;;;;;-144.85;100.00;61331.59;5097112;28;32300;-63
2023/05/04 08:02:22;;;;;;;8.55;4.30;;;;;;;-144.85;100.00;61331.59;5107655;28;31999;-63
2023/05/04 08:04:49;;;;;;;7.00;4.30;;;;;;;-144.85;100.00;61331.59;5103665;28;31682;-63
2023/05/04 08:07:19;;;;;;;8.35;5.10;;;;;;;-144.85;100.00;61331.59;5102835;28;32746;-64
2023/05/04 08:09:46;;;;;;;11.68;5.00;;;;;;;-144.85;100.00;61331.59;5092550;28;32131;-62
2023/05/04 08:12:13;;;;;;;8.40;4.88;;;;;;;-144.85;100.00;61331.59;5078048;28;32016;-63
2023/05/04 08:14:40;;;;;;;9.75;4.63;;;;;;;-144.85;100.00;61331.59;5090991;28;31459;-65
2023/05/04 08:17:08;;;;;;;11.73;4.90;;;;;;;-144.85;100.00;61331.59;5111461;28;32955;-66
2023/05/04 08:19:35;;;;;;;13.20;5.45;;;;;;;-144.85;100.00;61331.59;5097147;28;32314;-64
2023/05/04 08:22:03;;;;;;;9.23;5.13;;;;;;;-144.85;100.00;61331.59;5093662;28;30378;-64
2023/05/04 08:24:30;;;;;;;8.75;4.57;;;;;;;-144.85;100.00;61331.59;5079843;28;31442;-63
2023/05/04 08:26:58;;;;;;;11.90;4.78;;;;;;;-144.85;100.00;61331.59;5092750;28;33503;-64
2023/05/04 08:29:35;;;;;;;8.88;5.00;;;;;;;-144.85;100.00;61331.59;5098641;28;30675;-63
2023/05/04 08:32:04;;;;;;;8.35;4.90;;;;;;;-144.85;100.00;61331.59;5113443;28;30830;-63
2023/05/04 08:34:32;;;;;;;13.52;4.90;;;;;;;-144.85;100.00;61331.59;5088250;28;31561;-63
2023/05/04 08:37:04;;;;;;;10.73;5.20;;;;;;;-144.85;100.00;61331.59;5082738;28;33464;-63
2023/05/04 08:39:31;;;;;;;9.52;5.20;;;;;;;-144.85;100.00;61331.59;5091604;28;32274;-63
2023/05/04 08:41:59;;;;;;;8.70;4.88;;;;;;;-144.85;100.00;61331.59;5089157;28;31925;-65
2023/05/04 08:44:28;;;;;;;7.95;4.90;;;;;;;-144.85;100.00;61331.59;5099179;28;31407;-65
2023/05/04 08:46:55;;;;;;;7.22;4.35;;;;;;;-144.85;100.00;61331.59;5083886;28;32177;-65
2023/05/04 08:49:23;;;;;;;8.75;4.68;;;;;;;-144.85;100.00;61331.59;5094688;28;33220;-65
2023/05/04 08:51:52;;;;;;;12.70;5.45;;;;;;;-144.85;100.00;61331.59;5095880;28;31789;-65
2023/05/04 08:54:21;;;;;;;10.95;5.13;;;;;;;-144.85;100.00;61331.59;5112796;28;31603;-65
2023/05/04 08:56:51;;;;;;;9.63;4.57;;;;;;;-144.85;100.00;61331.59;5096032;28;33725;-63
2023/05/04 08:59:21;;;;;;;9.07;5.07;;;;;;;-144.85;100.00;61331.59;5098784;28;32306;-65
2023/05/04 09:01:53;;;;;;;11.15;4.75;;;;;;;-144.85;100.00;61331.59;5099992;28;32860;-65
2023/05/04 09:04:21;;;;;;;7.85;4.85;;;;;;;-144.85;100.00;61331.59;5102697;28;31626;-65
2023/05/04 09:06:49;;;;;;;7.53;4.95;;;;;;;-144.85;100.00;61331.59;5102049;28;32481;-65
2023/05/04 09:09:21;;;;;;;8.70;4.82;;;;;;;-144.85;100.00;61331.59;5099450;28;32291;-65
2023/05/04 09:11:48;;;;;;;7.20;4.68;;;;;;;-144.85;100.00;61331.59;5099660;28;32772;-65
2023/05/04 09:14:15;;;;;;;14.38;5.13;;;;;;;-144.85;100.00;61331.59;5089420;28;31334;-65
2023/05/04 09:16:42;;;;;;;9.68;4.90;;;;;;;-144.85;100.00;61331.59;5099310;28;32292;-65
2023/05/04 09:19:20;;;;;;;11.38;5.50;;;;;;;-144.85;100.00;61331.59;5101810;28;31016;-65
2023/05/04 09:21:48;;;;;;;9.70;5.07;;;;;;;-144.85;100.00;61331.59;5094322;28;32227;-65
2023/05/04 09:24:26;;;;;;;6.13;4.68;;;;;;;-144.85;100.00;61331.59;5094021;28;31566;-65
2023/05/04 09:26:54;;;;;;;10.38;5.40;;;;;;;-144.85;100.00;61331.59;5099735;28;32344;-65
2023/05/04 09:29:24;;;;;;;11.38;5.22;;;;;;;-144.85;100.00;61331.59;5099202;28;32224;-63
2023/05/04 09:31:51;;;;;;;8.60;5.30;;;;;;;-144.85;100.00;61331.59;5099920;28;30956;-63
2023/05/04 09:34:20;;;;;;;9.32;5.63;;;;;;;-144.85;100.00;61331.59;5101968;28;31957;-63
2023/05/04 09:37:01;;;;;;;8.93;6.07;;;;;;;-144.85;100.00;61331.59;5099399;28;32499;-65
2023/05/04 09:39:29;;;;;;;10.93;5.85;;;;;;;-144.85;100.00;61331.59;5097011;28;30936;-65
2023/05/04 09:41:56;;;;;;;14.23;5.85;;;;;;;-144.85;100.00;61331.59;5107170;27;31919;-65
2023/05/04 09:44:24;;;;;;;10.77;5.43;;;;;;;-144.85;100.00;61331.59;5121599;28;31580;-65
2023/05/04 09:46:55;;;;;;;11.35;6.00;;;;;;;-144.85;100.00;61331.59;5108417;28;31232;-65
2023/05/04 09:49:40;;;;;;;8.45;5.75;;;;;;;-144.85;100.00;61331.59;5103923;28;32852;-65
2023/05/04 09:52:08;;;;;;;11.05;6.30;;;;;;;-144.85;100.00;61331.59;5105369;28;32807;-65
2023/05/04 09:54:37;;;;;;;12.50;5.78;;;;;;;-144.85;100.00;61331.59;5116001;28;31600;-65
2023/05/04 09:57:14;;;;;;;11.02;5.65;;;;;;;-144.85;100.00;61331.59;5098607;28;32574;-65
2023/05/04 09:59:41;;;;;;;10.18;6.20;;;;;;;-144.85;100.00;61331.59;5104823;28;32128;-65
2023/05/04 10:02:13;;;;;;;10.85;6.10;;;;;;;-144.85;100.00;61331.59;5119834;28;32091;-65
2023/05/04 10:04:50;;;;;;;12.32;6.82;;;;;;;-144.85;100.00;61331.59;5110010;28;32450;-65
2023/05/04 10:07:19;;;;;;;11.55;6.40;;;;;;;-144.85;100.00;61331.59;5091878;28;32348;-66
2023/05/04 10:09:47;;;;;;;10.73;6.50;;;;;;;-144.85;100.00;61331.59;5097399;28;32051;-65
2023/05/04 10:12:16;;;;;;;10.43;7.10;;;;;;;-144.85;100.00;61331.59;5108293;28;32013;-65
2023/05/04 10:14:45;;;;;;;10.63;6.80;;;;;;;-144.85;100.00;61331.59;5101473;28;31698;-65
2023/05/04 10:17:16;;;;;;;11.68;6.50;;;;;;;-144.85;100.00;61331.59;5098498;28;33393;-65
2023/05/04 10:19:55;;;;;;;11.18;6.95;;;;;;;-144.85;100.00;61331.59;5084097;28;32233;-65
2023/05/04 10:23:11;;;;;;;9.70;6.63;;;;;;;-144.85;100.00;61331.59;5106809;28;31580;-65
2023/05/04 10:25:58;;;;;;;;;;;;;;;-144.85;100.00;61331.59;5053847;28;31605;-65
2023/05/04 10:29:06;;;;;;;10.35;6.45;;;;;;;-144.85;100.00;61331.59;5104365;28;32451;-65
2023/05/04 10:31:41;;;;;;;9.43;6.60;;;;;;;-144.85;100.00;61331.59;5102560;27;30805;-65
2023/05/04 10:34:09;;;;;;;9.23;6.72;;;;;;;-144.85;100.00;61331.59;5114497;28;31867;-66
2023/05/04 10:36:42;;;;;;;10.60;6.18;;;;;;;-144.85;100.00;61331.59;5096944;28;31930;-66
2023/05/04 10:39:20;;;;;;;12.10;6.70;;;;;;;-144.85;100.00;61331.59;5094512;28;32480;-65
2023/05/04 10:41:58;;;;;;;10.50;6.30;;;;;;;-144.85;100.00;61331.59;5089487;28;32162;-66
2023/05/04 10:44:30;;;;;;;11.40;6.75;;;;;;;-144.85;100.00;61331.59;5100567;28;31639;-66
2023/05/04 10:47:06;;;;;;;9.02;6.40;;;;;;;-144.85;100.00;61331.59;5113677;28;31400;-66
2023/05/04 10:49:34;;;;;;;10.45;6.57;;;;;;;-144.85;100.00;61331.59;5097704;28;32561;-66
2023/05/04 10:52:12;;;;;;;10.73;6.60;;;;;;;-144.85;100.00;61331.59;5110803;28;33292;-66
2023/05/04 10:54:40;;;;;;;13.07;6.13;;;;;;;-144.85;100.00;61331.59;5083805;28;31748;-66
2023/05/04 10:57:13;;;;;;;8.20;6.30;;;;;;;-144.85;100.00;61331.59;5112876;28;31514;-66
2023/05/04 10:59:40;;;;;;;11.77;6.13;;;;;;;-144.85;100.00;61331.59;5096315;28;33420;-66
2023/05/04 11:02:08;;;;;;;11.60;6.13;;;;;;;-144.85;100.00;61331.59;5098832;28;31892;-66
2023/05/04 11:04:36;;;;;;;10.98;5.97;;;;;;;-144.85;100.00;61331.59;5099660;28;33580;-66
2023/05/04 11:07:05;;;;;;;13.93;6.38;;;;;;;-144.85;100.00;61331.59;5080145;28;31622;-66
2023/05/04 11:09:37;;;;;;;9.18;6.28;;;;;;;-144.85;100.00;61331.59;5093683;28;32202;-66
2023/05/04 11:12:06;;;;;;;12.65;6.65;;;;;;;-144.85;100.00;61331.59;5095414;28;32241;-66